Time;durP1;ratioP1;P1;durP2;ratioP2;P2;SDS_P1;SDS_P2;PMS_P1;PMS_P2;Temp;Humidity;BMP_temperature;BMP_pressure;BME280_temperature;BME280_humidity;BME280_pressure;Samples;Min_cycle;Max_cycle;Signal;HPM_P1;HPM_P2
2022/12/14 00:00:28;;;;;;;;;;;-2.90;99.90;;;;;;5096528;28;19915;-72
2022/12/14 00:02:54;;;;;;;;;;;-2.90;99.90;;;;;;5097730;28;19913;-72
2022/12/14 00:05:20;;;;;;;;;;;-2.90;99.90;;;;;;5103572;28;20004;-73
2022/12/14 00:07:45;;;;;;;;;;;-2.90;99.90;;;;;;5104878;28;20334;-73
2022/12/14 00:10:11;;;;;;;;;;;-2.90;99.90;;;;;;5116845;28;20006;-73
2022/12/14 00:12:36;;;;;;;;;;;-2.90;99.90;;;;;;5099007;28;19919;-77
2022/12/14 00:15:02;;;;;;;;;;;-2.90;99.90;;;;;;5097590;27;19916;-76
2022/12/14 00:17:28;;;;;;;;;;;-3.00;99.90;;;;;;5110331;28;19980;-73
2022/12/14 00:19:53;;;;;;;;;;;-3.00;99.90;;;;;;5101598;28;20001;-74
2022/12/14 00:22:19;;;;;;;;;;;-3.00;99.90;;;;;;5104916;28;19995;-72
2022/12/14 00:24:45;;;;;;;;;;;-3.00;99.90;;;;;;5105876;28;19943;-73
2022/12/14 00:27:10;;;;;;;;;;;-3.00;99.90;;;;;;5099251;28;19963;-73
2022/12/14 00:29:36;;;;;;;;;;;-3.00;99.90;;;;;;5102764;28;19923;-72
2022/12/14 00:32:01;;;;;;;;;;;-3.00;99.90;;;;;;5105658;28;19922;-72
2022/12/14 00:34:27;;;;;;;;;;;-3.10;99.90;;;;;;5102931;28;19912;-72
2022/12/14 00:36:53;;;;;;;;;;;-3.10;99.90;;;;;;5096785;28;19915;-77
2022/12/14 00:39:19;;;;;;;;;;;-3.20;99.90;;;;;;5102058;28;19977;-74
2022/12/14 00:41:44;;;;;;;;;;;-3.30;99.90;;;;;;5099960;28;19912;-75
2022/12/14 00:44:10;;;;;;;;;;;-3.40;99.90;;;;;;5100351;27;19960;-73
2022/12/14 00:46:35;;;;;;;;;;;-3.40;99.90;;;;;;5096173;28;19926;-76
2022/12/14 00:49:01;;;;;;;;;;;-3.40;99.90;;;;;;5096736;28;19941;-73
2022/12/14 00:51:27;;;;;;;;;;;-3.50;99.90;;;;;;5129123;27;20191;-73
2022/12/14 00:53:52;;;;;;;;;;;-3.50;99.90;;;;;;5097108;28;19990;-73
2022/12/14 00:56:18;;;;;;;;;;;-3.60;99.90;;;;;;5101865;28;19920;-73
2022/12/14 00:58:48;;;;;;;;;;;-3.60;99.90;;;;;;5109451;28;19916;-73
2022/12/14 01:01:14;;;;;;;;;;;-3.60;99.90;;;;;;5101554;28;19908;-72
2022/12/14 01:03:39;;;;;;;;;;;-3.70;99.90;;;;;;5105722;27;19953;-76
2022/12/14 01:06:05;;;;;;;;;;;-3.70;99.90;;;;;;5107143;28;20033;-72
2022/12/14 01:08:34;;;;;;;;;;;-3.70;99.90;;;;;;5107205;28;19947;-72
2022/12/14 01:11:02;;;;;;;;;;;-3.70;99.90;;;;;;5105023;28;19918;-71
2022/12/14 01:13:27;;;;;;;;;;;-3.70;99.90;;;;;;5106454;28;19912;-73
2022/12/14 01:15:53;;;;;;;;;;;-3.70;99.90;;;;;;5090860;27;20226;-76
2022/12/14 01:18:19;;;;;;;;;;;-3.70;99.90;;;;;;5096677;28;19908;-75
2022/12/14 01:20:44;;;;;;;;;;;-3.80;99.90;;;;;;5100240;27;19962;-73
2022/12/14 01:23:10;;;;;;;;;;;-3.80;99.90;;;;;;5098621;27;19955;-73
2022/12/14 01:25:35;;;;;;;;;;;-3.80;99.90;;;;;;5095081;28;20264;-72
2022/12/14 01:28:01;;;;;;;;;;;-3.80;99.90;;;;;;5102175;28;20408;-72
2022/12/14 01:30:26;;;;;;;;;;;-3.90;99.90;;;;;;5097969;28;19941;-72
2022/12/14 01:32:52;;;;;;;;;;;-3.90;99.90;;;;;;5111311;28;19919;-72
2022/12/14 01:35:17;;;;;;;;;;;-4.00;99.90;;;;;;5115362;28;20230;-72
2022/12/14 01:37:43;;;;;;;;;;;-4.10;99.90;;;;;;5109154;28;20104;-72
2022/12/14 01:40:09;;;;;;;;;;;-4.10;99.90;;;;;;5092457;28;19955;-72
2022/12/14 01:42:35;;;;;;;;;;;-4.20;99.90;;;;;;5112922;28;19915;-73
2022/12/14 01:45:00;;;;;;;;;;;-4.20;99.90;;;;;;5107995;28;19916;-72
2022/12/14 01:47:33;;;;;;;;;;;-4.30;99.90;;;;;;5106573;28;20210;-72
2022/12/14 01:50:08;;;;;;;;;;;-4.30;99.90;;;;;;5097806;28;20183;-72
2022/12/14 01:52:42;;;;;;;;;;;-4.40;99.90;;;;;;5104839;28;19936;-75
2022/12/14 01:55:11;;;;;;;;;;;-4.40;99.90;;;;;;5108130;28;19963;-75
2022/12/14 01:57:40;;;;;;;;;;;-4.50;99.90;;;;;;5101413;28;20411;-72
2022/12/14 02:00:07;;;;;;;;;;;-4.50;99.90;;;;;;5097965;28;20155;-72
2022/12/14 02:02:34;;;;;;;;;;;-4.50;99.90;;;;;;5112339;28;19916;-73
2022/12/14 02:05:01;;;;;;;;;;;-4.50;99.90;;;;;;5105106;28;19911;-72
2022/12/14 02:07:27;;;;;;;;;;;-4.60;99.90;;;;;;5100303;28;20336;-73
2022/12/14 02:09:55;;;;;;;;;;;-4.60;99.90;;;;;;5108692;28;19953;-76
2022/12/14 02:12:31;;;;;;;;;;;-4.70;99.90;;;;;;5099030;28;19916;-75
2022/12/14 02:14:57;;;;;;;;;;;-4.70;99.90;;;;;;5096116;28;19962;-73
2022/12/14 02:17:23;;;;;;;;;;;-4.80;99.90;;;;;;5100178;28;19951;-76
2022/12/14 02:19:49;;;;;;;;;;;-4.80;99.90;;;;;;5099860;28;19919;-72
2022/12/14 02:22:27;;;;;;;;;;;-4.80;99.90;;;;;;5136871;27;20373;-76
2022/12/14 02:24:55;;;;;;;;;;;-4.80;99.90;;;;;;5096388;27;20273;-76
2022/12/14 02:27:39;;;;;;;;;;;-4.80;99.90;;;;;;5106003;28;20245;-72
2022/12/14 02:30:11;;;;;;;;;;;-4.80;99.90;;;;;;5095368;28;20548;-72
2022/12/14 02:32:56;;;;;;;;;;;-4.80;99.90;;;;;;5094828;28;19947;-72
2022/12/14 02:35:22;;;;;;;;;;;-4.70;99.90;;;;;;5109376;27;19977;-72
2022/12/14 02:38:06;;;;;;;;;;;-4.70;99.90;;;;;;5101489;28;19996;-73
2022/12/14 02:40:35;;;;;;;;;;;-4.60;99.90;;;;;;5117482;28;19916;-72
2022/12/14 02:43:07;;;;;;;;;;;-4.50;99.90;;;;;;5101805;28;19919;-73
2022/12/14 02:45:35;;;;;;;;;;;-4.40;99.90;;;;;;5101540;27;20311;-72
2022/12/14 02:48:27;;;;;;;;;;;-4.30;99.90;;;;;;5101415;28;19912;-72
2022/12/14 02:50:53;;;;;;;;;;;-4.20;99.90;;;;;;5027761;28;19917;-72
2022/12/14 02:53:23;;;;;;;;;;;-4.20;99.90;;;;;;5048328;28;19916;-72
2022/12/14 02:55:52;;;;;;;;;;;-4.20;99.90;;;;;;5055205;28;19956;-73
2022/12/14 02:58:23;;;;;;;;;;;-4.30;99.90;;;;;;5047549;28;19917;-71
2022/12/14 03:00:49;;;;;;;;;;;-4.40;99.90;;;;;;5058708;28;19909;-76
2022/12/14 03:03:15;;;;;;;;;;;-4.40;99.90;;;;;;5045347;28;20469;-73
2022/12/14 03:05:41;;;;;;;;;;;-4.50;99.90;;;;;;5053785;28;19913;-71
2022/12/14 03:08:13;;;;;;;;;;;-4.50;99.90;;;;;;5056573;28;19925;-72
2022/12/14 03:10:56;;;;;;;;;;;-4.50;99.90;;;;;;5051574;28;19920;-72
2022/12/14 03:13:24;;;;;;;;;;;-4.60;99.90;;;;;;5040671;28;19909;-73
2022/12/14 03:15:59;;;;;;;;;;;-4.60;99.90;;;;;;5049487;28;19923;-72
2022/12/14 03:18:26;;;;;;;;;;;-4.60;99.90;;;;;;5043631;28;19916;-72
2022/12/14 03:20:53;;;;;;;;;;;-4.70;99.90;;;;;;5046956;28;19909;-72
2022/12/14 03:23:21;;;;;;;;;;;-4.70;99.90;;;;;;5043964;28;19939;-72
2022/12/14 03:25:49;;;;;;;;;;;-4.70;99.90;;;;;;5044037;28;19916;-72
2022/12/14 03:28:17;;;;;;;;;;;-4.70;99.90;;;;;;5097389;28;19918;-72
2022/12/14 03:30:48;;;;;;;;;;;-4.80;99.90;;;;;;5119543;28;19961;-71
2022/12/14 03:33:15;;;;;;;;;;;-4.90;99.90;;;;;;5120922;27;19917;-71
2022/12/14 03:35:55;;;;;;;;;;;-4.90;99.90;;;;;;5107101;27;20318;-72
2022/12/14 03:38:27;;;;;;;;;;;-5.00;99.90;;;;;;5104528;28;19916;-71
2022/12/14 03:40:56;;;;;;;;;;;-5.00;99.90;;;;;;5102211;28;19935;-72
2022/12/14 03:43:36;;;;;;;;;;;-5.00;99.90;;;;;;5100544;28;19966;-72
2022/12/14 03:46:18;;;;;;;;;;;-5.10;99.90;;;;;;5105172;27;19998;-73
2022/12/14 03:48:52;;;;;;;;;;;-5.10;99.90;;;;;;5101085;28;19911;-71
2022/12/14 03:51:36;;;;;;;;;;;-5.20;99.90;;;;;;5106238;28;19912;-72
2022/12/14 03:54:28;;;;;;;;;;;-5.30;99.90;;;;;;5110869;28;19926;-72
2022/12/14 03:56:56;;;;;;;;;;;-5.40;99.90;;;;;;5082486;27;20295;-72
2022/12/14 03:59:27;;;;;;;;;;;-5.40;99.90;;;;;;5100547;28;19998;-72
2022/12/14 04:02:00;;;;;;;;;;;-5.50;99.90;;;;;;5097613;28;19912;-73
2022/12/14 04:04:25;;;;;;;;;;;-5.60;99.90;;;;;;5106461;28;19920;-72
2022/12/14 04:06:51;;;;;;;;;;;-5.60;99.90;;;;;;5099002;28;19935;-72
2022/12/14 04:09:52;;;;;;;;;;;-5.60;99.90;;;;;;5108242;28;19958;-72
2022/12/14 04:20:47;;;;;;;;;;;-5.80;99.90;;;;;;5100516;28;19958;-72
2022/12/14 04:26:20;;;;;;;;;;;-5.90;99.90;;;;;;5100278;27;20218;-72
2022/12/14 04:31:42;;;;;;;;;;;-5.90;99.90;;;;;;5091646;27;20322;-71
2022/12/14 04:34:10;;;;;;;;;;;-5.90;99.90;;;;;;5108476;28;20013;-72
2022/12/14 04:36:41;;;;;;;;;;;-6.00;99.90;;;;;;5108141;27;20380;-71
2022/12/14 04:39:08;;;;;;;;;;;-6.00;99.90;;;;;;5115263;27;20223;-72
2022/12/14 04:41:35;;;;;;;;;;;-6.00;99.90;;;;;;5099737;28;19947;-72
2022/12/14 04:44:04;;;;;;;;;;;-6.10;99.90;;;;;;5095650;27;20242;-71
2022/12/14 04:46:31;;;;;;;;;;;-6.10;99.90;;;;;;5096328;28;19942;-72
2022/12/14 04:49:09;;;;;;;;;;;-6.10;99.90;;;;;;5096560;28;19919;-75
2022/12/14 04:51:37;;;;;;;;;;;-6.20;99.90;;;;;;5097835;28;19918;-72
2022/12/14 04:54:08;;;;;;;;;;;-6.20;99.90;;;;;;5097264;27;19918;-72
2022/12/14 04:56:55;;;;;;;;;;;-6.20;99.90;;;;;;5099885;28;19985;-71
2022/12/14 04:59:20;;;;;;;;;;;-6.10;99.90;;;;;;5097772;28;19931;-72
2022/12/14 05:01:51;;;;;;;;;;;-6.20;99.90;;;;;;5102129;27;20214;-72
2022/12/14 05:04:36;;;;;;;;;;;-6.10;99.90;;;;;;5096797;28;19908;-72
2022/12/14 05:07:16;;;;;;;;;;;-6.10;99.90;;;;;;5108567;28;20582;-75
2022/12/14 05:09:50;;;;;;;;;;;-6.10;99.90;;;;;;5102649;28;19908;-71
2022/12/14 05:12:23;;;;;;;;;;;-6.00;99.90;;;;;;5097277;27;20003;-72
2022/12/14 05:14:51;;;;;;;;;;;-6.10;99.90;;;;;;5102149;27;20002;-71
2022/12/14 05:17:17;;;;;;;;;;;-6.10;99.90;;;;;;5109775;28;19915;-72
2022/12/14 05:19:49;;;;;;;;;;;-6.10;99.90;;;;;;5109176;28;19924;-75
2022/12/14 05:22:15;;;;;;;;;;;-6.10;99.90;;;;;;5105704;28;19912;-76
2022/12/14 05:24:41;;;;;;;;;;;-6.10;99.90;;;;;;5102165;28;20027;-72
2022/12/14 05:27:06;;;;;;;;;;;-6.20;99.90;;;;;;5107837;28;19966;-71
2022/12/14 05:29:32;;;;;;;;;;;-6.10;99.90;;;;;;5116183;28;19993;-72
2022/12/14 05:31:58;;;;;;;;;;;-6.10;99.90;;;;;;5099279;27;19912;-72
2022/12/14 05:34:23;;;;;;;;;;;-6.10;99.90;;;;;;5094448;27;20318;-72
2022/12/14 05:36:49;;;;;;;;;;;-6.10;99.90;;;;;;5125239;27;19937;-72
2022/12/14 05:39:15;;;;;;;;;;;-6.10;99.90;;;;;;5118703;27;20035;-72
2022/12/14 05:41:41;;;;;;;;;;;-6.10;99.90;;;;;;5094758;28;19912;-72
2022/12/14 05:44:07;;;;;;;;;;;-6.10;99.90;;;;;;5107734;28;19963;-72
2022/12/14 05:46:32;;;;;;;;;;;-6.20;99.90;;;;;;5095729;28;19916;-73
2022/12/14 05:48:58;;;;;;;;;;;-6.20;99.90;;;;;;5095371;28;20019;-72
2022/12/14 05:51:24;;;;;;;;;;;-6.10;99.90;;;;;;5096366;28;19915;-72
2022/12/14 05:53:49;;;;;;;;;;;-6.20;99.90;;;;;;5096850;28;20655;-71
2022/12/14 05:56:15;;;;;;;;;;;-6.00;99.90;;;;;;5139264;27;19931;-71
2022/12/14 05:58:41;;;;;;;;;;;-5.70;99.90;;;;;;5095572;28;19938;-71
2022/12/14 06:01:08;;;;;;;;;;;-5.50;99.90;;;;;;5099712;27;19965;-72
2022/12/14 06:03:34;;;;;;;;;;;-5.60;99.90;;;;;;5108295;28;20010;-72
2022/12/14 06:06:00;;;;;;;;;;;-5.60;99.90;;;;;;5108606;28;20038;-71
2022/12/14 06:08:26;;;;;;;;;;;-5.60;99.90;;;;;;5112460;28;20203;-72
2022/12/14 06:10:59;;;;;;;;;;;-5.60;99.90;;;;;;5112797;27;19912;-71
2022/12/14 06:13:25;;;;;;;;;;;-5.70;99.90;;;;;;5097422;28;19912;-72
2022/12/14 06:15:51;;;;;;;;;;;-5.80;99.90;;;;;;5094954;28;19912;-71
2022/12/14 06:18:17;;;;;;;;;;;-5.90;99.90;;;;;;5094654;28;20196;-71
2022/12/14 06:20:43;;;;;;;;;;;-5.90;99.90;;;;;;5099804;28;19920;-76
2022/12/14 06:23:08;;;;;;;;;;;-6.00;99.90;;;;;;5099872;28;20325;-72
2022/12/14 06:25:34;;;;;;;;;;;-6.00;99.90;;;;;;5111425;28;19908;-73
2022/12/14 06:27:59;;;;;;;;;;;-6.10;99.90;;;;;;5108258;28;19926;-71
2022/12/14 06:30:25;;;;;;;;;;;-6.10;99.90;;;;;;5109589;28;20314;-72
2022/12/14 06:32:50;;;;;;;;;;;-6.10;99.90;;;;;;5106430;28;20432;-71
2022/12/14 06:35:16;;;;;;;;;;;-6.20;99.90;;;;;;5094730;28;19916;-72
2022/12/14 06:37:42;;;;;;;;;;;-6.30;99.90;;;;;;5100856;27;19915;-77
2022/12/14 06:40:07;;;;;;;;;;;-6.30;99.90;;;;;;5109684;27;19918;-72
2022/12/14 06:42:33;;;;;;;;;;;-6.40;99.90;;;;;;5103092;28;19915;-72
2022/12/14 06:44:58;;;;;;;;;;;-6.40;99.90;;;;;;5107626;28;19912;-76
2022/12/14 06:47:24;;;;;;;;;;;-6.60;99.90;;;;;;5110400;28;19916;-73
2022/12/14 06:49:50;;;;;;;;;;;-6.70;99.90;;;;;;5110444;28;20007;-76
2022/12/14 06:52:15;;;;;;;;;;;-6.70;99.90;;;;;;5110452;28;20203;-72
2022/12/14 06:54:41;;;;;;;;;;;-6.70;99.90;;;;;;5095202;28;19947;-72
2022/12/14 06:57:06;;;;;;;;;;;-6.80;99.90;;;;;;5102771;28;19920;-75
2022/12/14 06:59:32;;;;;;;;;;;-6.90;99.90;;;;;;5101069;28;20321;-73
2022/12/14 07:01:57;;;;;;;;;;;-7.00;99.90;;;;;;5099488;28;19918;-72
2022/12/14 07:04:23;;;;;;;;;;;-7.10;99.90;;;;;;5100547;28;19930;-72
2022/12/14 07:06:49;;;;;;;;;;;-7.20;99.90;;;;;;5099493;28;20333;-72
2022/12/14 07:09:27;;;;;;;;;;;-7.30;99.90;;;;;;5112663;28;20351;-77
2022/12/14 07:11:59;;;;;;;;;;;-7.30;99.90;;;;;;5107435;28;19911;-72
2022/12/14 07:14:24;;;;;;;;;;;-7.30;99.90;;;;;;5111945;28;20315;-76
2022/12/14 07:16:51;;;;;;;;;;;-7.40;99.90;;;;;;5100286;28;19966;-72
2022/12/14 07:19:17;;;;;;;;;;;-7.40;99.90;;;;;;5095382;28;19922;-73
2022/12/14 07:21:42;;;;;;;;;;;-7.60;99.90;;;;;;5096343;28;20035;-71
2022/12/14 07:24:07;;;;;;;;;;;-7.60;99.90;;;;;;5110816;28;20291;-72
2022/12/14 07:26:33;;;;;;;;;;;-7.70;99.90;;;;;;5106410;28;19918;-72
2022/12/14 07:28:59;;;;;;;;;;;-7.70;99.90;;;;;;5099281;28;19965;-72
2022/12/14 07:31:25;;;;;;;;;;;-7.70;99.90;;;;;;5100828;28;19961;-71
2022/12/14 07:33:51;;;;;;;;;;;-7.70;99.90;;;;;;5099266;28;19966;-71
2022/12/14 07:36:18;;;;;;;;;;;-7.60;99.90;;;;;;5101259;28;20064;-71
2022/12/14 07:38:45;;;;;;;;;;;-7.50;99.90;;;;;;5103068;28;19916;-71
2022/12/14 07:41:12;;;;;;;;;;;-7.30;99.90;;;;;;5104702;27;19934;-72
2022/12/14 07:43:38;;;;;;;;;;;-7.20;99.90;;;;;;5106484;28;20333;-73
2022/12/14 07:46:04;;;;;;;;;;;-7.30;99.90;;;;;;5096873;28;20013;-76
2022/12/14 07:48:30;;;;;;;;;;;-7.30;99.90;;;;;;5099765;28;20031;-72
2022/12/14 07:51:02;;;;;;;;;;;-7.30;99.90;;;;;;5096501;27;20003;-77
2022/12/14 07:53:28;;;;;;;;;;;-7.20;99.90;;;;;;5098571;28;19923;-76
2022/12/14 07:55:53;;;;;;;;;;;-7.20;99.90;;;;;;5103210;28;19924;-71
2022/12/14 07:58:19;;;;;;;;;;;-7.20;99.90;;;;;;5112191;28;19935;-72
2022/12/14 08:00:44;;;;;;;;;;;-7.20;99.90;;;;;;5097366;28;19920;-72
2022/12/14 08:03:10;;;;;;;;;;;-7.10;99.90;;;;;;5114098;28;19924;-72
2022/12/14 08:05:39;;;;;;;;;;;-6.90;99.90;;;;;;5105990;28;19916;-72
2022/12/14 08:08:04;;;;;;;;;;;-6.80;99.90;;;;;;5107556;28;19916;-72
2022/12/14 08:10:30;;;;;;;;;;;-6.80;99.90;;;;;;5145125;27;19916;-71
2022/12/14 08:12:55;;;;;;;;;;;-6.90;99.90;;;;;;5111824;28;19916;-72
2022/12/14 08:15:21;;;;;;;;;;;-6.90;99.90;;;;;;5099929;28;19920;-73
2022/12/14 08:17:46;;;;;;;;;;;-7.00;99.90;;;;;;5112307;28;19916;-72
2022/12/14 08:20:12;;;;;;;;;;;-6.90;99.90;;;;;;5105145;28;20279;-72
2022/12/14 08:22:37;;;;;;;;;;;-6.90;99.90;;;;;;5098931;28;19916;-72
2022/12/14 08:25:03;;;;;;;;;;;-7.00;99.90;;;;;;5105674;28;19946;-72
2022/12/14 08:27:29;;;;;;;;;;;-7.00;99.90;;;;;;5111507;28;20306;-73
2022/12/14 08:29:54;;;;;;;;;;;-7.00;99.90;;;;;;5110193;27;19916;-72
2022/12/14 08:32:20;;;;;;;;;;;-6.90;99.90;;;;;;5108220;28;20199;-71
2022/12/14 08:34:45;;;;;;;;;;;-6.90;99.90;;;;;;5111602;28;19916;-76
2022/12/14 08:37:11;;;;;;;;;;;-6.80;99.90;;;;;;5100510;28;19908;-72
2022/12/14 08:39:36;;;;;;;;;;;-6.70;99.90;;;;;;5108026;28;19916;-72
2022/12/14 08:42:02;;;;;;;;;;;-6.70;99.90;;;;;;5107534;28;19912;-77
2022/12/14 08:44:27;;;;;;;;;;;-6.70;99.90;;;;;;5108259;28;19934;-73
2022/12/14 08:46:53;;;;;;;;;;;-6.70;99.90;;;;;;5104489;28;19927;-72
2022/12/14 08:49:19;;;;;;;;;;;-6.60;99.90;;;;;;5093113;27;19919;-72
2022/12/14 08:51:44;;;;;;;;;;;-6.60;99.90;;;;;;5112037;28;20345;-72
2022/12/14 08:54:10;;;;;;;;;;;-6.60;99.90;;;;;;5097074;28;19961;-72
2022/12/14 08:56:36;;;;;;;;;;;-6.50;99.90;;;;;;5106086;28;19924;-77
2022/12/14 08:59:02;;;;;;;;;;;-6.40;99.90;;;;;;5094605;27;20253;-77
2022/12/14 09:01:28;;;;;;;;;;;-6.40;99.90;;;;;;5106603;28;19912;-76
2022/12/14 09:03:53;;;;;;;;;;;-6.30;99.90;;;;;;5106411;27;19912;-73
2022/12/14 09:06:20;;;;;;;;;;;-6.30;99.90;;;;;;5109756;28;20279;-77
2022/12/14 09:08:46;;;;;;;;;;;-6.30;99.90;;;;;;5112649;28;19911;-72
2022/12/14 09:11:12;;;;;;;;;;;-6.30;99.90;;;;;;5108299;28;20377;-73
2022/12/14 09:13:38;;;;;;;;;;;-6.30;99.90;;;;;;5111644;28;19934;-74
2022/12/14 09:16:05;;;;;;;;;;;-6.30;99.90;;;;;;5107556;28;19916;-72
2022/12/14 09:18:33;;;;;;;;;;;-6.20;99.90;;;;;;5108110;28;19919;-72
2022/12/14 09:20:59;;;;;;;;;;;-6.00;99.90;;;;;;5136877;27;19912;-72
2022/12/14 09:23:25;;;;;;;;;;;-5.90;99.90;;;;;;5111664;28;19918;-71
2022/12/14 09:26:17;;;;;;;;;;;-5.80;99.90;;;;;;5100161;28;19916;-72
2022/12/14 09:28:50;;;;;;;;;;;-5.70;99.90;;;;;;5109136;28;19938;-72
2022/12/14 09:31:16;;;;;;;;;;;-5.60;99.90;;;;;;5111576;28;19958;-72
2022/12/14 09:33:42;;;;;;;;;;;-5.40;99.90;;;;;;5109201;27;20217;-78
2022/12/14 09:36:10;;;;;;;;;;;-5.40;99.90;;;;;;5107595;28;19920;-73
2022/12/14 09:38:36;;;;;;;;;;;-5.20;99.90;;;;;;5111296;28;19915;-73
2022/12/14 09:41:06;;;;;;;;;;;-5.10;99.90;;;;;;5112641;28;20006;-72
2022/12/14 09:43:42;;;;;;;;;;;-5.00;99.90;;;;;;5112362;28;19968;-73
2022/12/14 09:46:16;;;;;;;;;;;-4.80;99.90;;;;;;5099572;28;19991;-72
2022/12/14 09:48:42;;;;;;;;;;;-4.60;99.90;;;;;;5113792;28;19912;-72
2022/12/14 09:51:12;;;;;;;;;;;-4.40;99.90;;;;;;5097045;28;20254;-74
2022/12/14 09:54:00;;;;;;;;;;;-4.20;99.90;;;;;;5104356;28;19916;-73
2022/12/14 09:56:25;;;;;;;;;;;-4.10;99.90;;;;;;5107620;28;20042;-76
2022/12/14 09:58:53;;;;;;;;;;;-4.10;99.90;;;;;;5100970;27;20381;-72
2022/12/14 10:01:19;;;;;;;;;;;-4.00;99.90;;;;;;5107923;28;19912;-74
2022/12/14 10:04:08;;;;;;;;;;;-3.90;99.90;;;;;;5107718;28;19908;-72
2022/12/14 10:06:40;;;;;;;;;;;-3.80;99.90;;;;;;5106845;28;19911;-78
2022/12/14 10:09:20;;;;;;;;;;;-3.70;99.90;;;;;;5105535;28;20530;-72
2022/12/14 10:12:04;;;;;;;;;;;-3.60;99.90;;;;;;5105181;28;19916;-72
2022/12/14 10:14:42;;;;;;;;;;;-3.50;99.90;;;;;;5104040;28;19912;-79
2022/12/14 10:17:07;;;;;;;;;;;-3.50;99.90;;;;;;5109552;28;19919;-73
2022/12/14 10:19:36;;;;;;;;;;;-3.50;99.90;;;;;;5111185;28;20203;-72
2022/12/14 10:22:10;;;;;;;;;;;-3.50;99.90;;;;;;5110736;28;19908;-72
2022/12/14 10:24:41;;;;;;;;;;;-3.40;99.90;;;;;;5096663;28;19966;-72
2022/12/14 10:27:08;;;;;;;;;;;-3.20;99.90;;;;;;5110538;28;19916;-73
2022/12/14 10:29:36;;;;;;;;;;;-3.10;99.90;;;;;;5105189;28;20003;-79
2022/12/14 10:32:19;;;;;;;;;;;-2.90;99.90;;;;;;5107781;27;19912;-73
2022/12/14 10:34:45;;;;;;;;;;;-2.70;99.90;;;;;;5101634;28;19919;-78
2022/12/14 10:37:13;;;;;;;;;;;-2.60;99.90;;;;;;5100289;28;19912;-72
2022/12/14 10:39:57;;;;;;;;;;;-2.50;99.90;;;;;;5100102;28;20335;-72
2022/12/14 10:42:28;;;;;;;;;;;-2.50;99.90;;;;;;5108421;28;19912;-72
2022/12/14 10:44:59;;;;;;;;;;;-2.30;99.90;;;;;;5101887;28;19912;-72
2022/12/14 10:47:28;;;;;;;;;;;-2.20;99.90;;;;;;5098130;28;19920;-77
2022/12/14 10:50:12;;;;;;;;;;;-2.20;99.90;;;;;;5108050;28;19937;-72
2022/12/14 10:52:40;;;;;;;;;;;-2.00;99.90;;;;;;5133010;27;20200;-72
2022/12/14 10:55:15;;;;;;;;;;;-2.10;99.90;;;;;;5107234;28;20358;-72
2022/12/14 10:57:40;;;;;;;;;;;-2.10;99.90;;;;;;5101498;27;20199;-72
2022/12/14 11:00:13;;;;;;;;;;;-2.10;99.90;;;;;;5106609;27;19918;-72
2022/12/14 11:02:41;;;;;;;;;;;-2.10;99.90;;;;;;5091969;27;20218;-74
2022/12/14 11:05:22;;;;;;;;;;;-2.20;99.90;;;;;;5110431;28;20364;-73
2022/12/14 11:07:48;;;;;;;;;;;-2.20;99.90;;;;;;5107734;28;19919;-76
2022/12/14 11:10:23;;;;;;;;;;;-2.20;99.90;;;;;;5111385;28;20310;-73
2022/12/14 11:12:51;;;;;;;;;;;-2.10;99.90;;;;;;5111137;28;19919;-73
2022/12/14 11:15:26;;;;;;;;;;;-2.10;99.90;;;;;;5112504;28;19923;-75
2022/12/14 11:17:59;;;;;;;;;;;-2.10;99.90;;;;;;5104076;28;19916;-76
2022/12/14 11:20:25;;;;;;;;;;;-2.10;99.90;;;;;;5107414;28;20007;-73
2022/12/14 11:22:55;;;;;;;;;;;-2.10;99.90;;;;;;5127539;27;20057;-76
2022/12/14 11:25:30;;;;;;;;;;;-2.00;99.90;;;;;;5102932;28;20186;-76
2022/12/14 11:27:57;;;;;;;;;;;-1.90;99.90;;;;;;5114467;28;19922;-75
2022/12/14 11:30:22;;;;;;;;;;;-1.80;99.90;;;;;;5114577;28;19908;-73
2022/12/14 11:32:48;;;;;;;;;;;-1.80;99.90;;;;;;5097299;28;20314;-74
2022/12/14 11:35:18;;;;;;;;;;;-1.70;99.90;;;;;;5106298;28;20332;-75
2022/12/14 11:37:44;;;;;;;;;;;-1.60;99.90;;;;;;5097437;28;19923;-72
2022/12/14 11:40:17;;;;;;;;;;;-1.50;99.90;;;;;;5114839;27;19916;-76
2022/12/14 11:42:48;;;;;;;;;;;-1.50;99.90;;;;;;5106692;27;20279;-76
2022/12/14 11:45:22;;;;;;;;;;;-1.50;99.90;;;;;;5111042;28;19951;-76
2022/12/14 11:48:07;;;;;;;;;;;-1.40;99.90;;;;;;5112682;28;20215;-74
2022/12/14 11:50:33;;;;;;;;;;;-1.20;99.90;;;;;;5110238;27;19930;-76
2022/12/14 11:53:05;;;;;;;;;;;-1.20;99.90;;;;;;5109184;28;20006;-75
2022/12/14 11:55:32;;;;;;;;;;;-1.20;99.90;;;;;;5108769;28;19924;-76
2022/12/14 11:57:58;;;;;;;;;;;-1.10;99.90;;;;;;5106495;28;19966;-74
2022/12/14 12:00:25;;;;;;;;;;;-1.20;99.90;;;;;;5109698;27;20326;-76
2022/12/14 12:03:06;;;;;;;;;;;-1.20;99.90;;;;;;5101451;27;19995;-75
2022/12/14 12:05:33;;;;;;;;;;;-1.10;99.90;;;;;;5115848;28;19907;-75
2022/12/14 12:07:59;;;;;;;;;;;-1.10;99.90;;;;;;5097766;27;20202;-74
2022/12/14 12:10:31;;;;;;;;;;;-1.10;99.90;;;;;;5110986;28;20306;-76
2022/12/14 12:12:59;;;;;;;;;;;-1.00;99.90;;;;;;5109754;28;19912;-76
2022/12/14 12:15:45;;;;;;;;;;;-0.90;99.90;;;;;;5112281;28;19924;-75
2022/12/14 12:18:29;;;;;;;;;;;-0.90;99.90;;;;;;5123805;27;19919;-73
2022/12/14 12:20:58;;;;;;;;;;;-0.80;99.90;;;;;;5112513;28;20345;-75
2022/12/14 12:23:29;;;;;;;;;;;-0.80;99.90;;;;;;5100898;28;20260;-76
2022/12/14 12:25:55;;;;;;;;;;;-0.70;99.90;;;;;;5113028;28;19934;-75
2022/12/14 12:28:23;;;;;;;;;;;-0.70;99.90;;;;;;5114311;28;20348;-75
2022/12/14 12:30:50;;;;;;;;;;;-0.70;99.90;;;;;;5114298;28;19956;-74
2022/12/14 12:33:23;;;;;;;;;;;-0.70;99.90;;;;;;5112051;27;19912;-75
2022/12/14 12:35:49;;;;;;;;;;;-0.70;99.90;;;;;;5077922;28;19920;-72
2022/12/14 12:38:35;;;;;;;;;;;-0.60;99.90;;;;;;5111495;28;20256;-75
2022/12/14 12:41:12;;;;;;;;;;;-0.60;99.90;;;;;;5110154;28;20229;-75
2022/12/14 12:43:42;;;;;;;;;;;-0.60;99.90;;;;;;5111280;28;20012;-74
2022/12/14 12:46:13;;;;;;;;;;;-0.50;99.90;;;;;;5097193;28;20010;-72
2022/12/14 12:48:44;;;;;;;;;;;-0.50;99.90;;;;;;5102704;27;19985;-73
2022/12/14 12:51:13;;;;;;;;;;;-0.40;99.90;;;;;;5109293;28;19992;-75
2022/12/14 12:53:42;;;;;;;;;;;-0.40;99.90;;;;;;5112789;28;20053;-72
2022/12/14 12:56:26;;;;;;;;;;;-0.40;99.90;;;;;;5113059;28;19924;-72
2022/12/14 12:58:52;;;;;;;;;;;-0.40;99.90;;;;;;5111858;28;19912;-74
2022/12/14 13:01:36;;;;;;;;;;;-0.30;99.90;;;;;;5109366;28;19922;-73
2022/12/14 13:04:04;;;;;;;;;;;-0.30;99.90;;;;;;5107258;28;19911;-76
2022/12/14 13:06:31;;;;;;;;;;;-0.30;99.90;;;;;;5102664;27;19916;-74
2022/12/14 13:08:57;;;;;;;;;;;-0.30;99.90;;;;;;5111578;28;19997;-75
2022/12/14 13:11:29;;;;;;;;;;;-0.30;99.90;;;;;;5112333;28;19915;-75
2022/12/14 13:14:01;;;;;;;;;;;-0.40;99.90;;;;;;5107685;28;20226;-74
2022/12/14 13:16:32;;;;;;;;;;;-0.40;99.90;;;;;;5096732;27;20272;-74
2022/12/14 13:19:05;;;;;;;;;;;-0.40;99.90;;;;;;5107584;28;19922;-73
2022/12/14 13:21:33;;;;;;;;;;;-0.40;99.90;;;;;;5110929;28;19916;-73
2022/12/14 13:23:59;;;;;;;;;;;-0.40;99.90;;;;;;5107701;27;19912;-74
2022/12/14 13:26:27;;;;;;;;;;;-0.40;99.90;;;;;;5096347;28;19912;-74
2022/12/14 13:29:02;;;;;;;;;;;-0.40;99.90;;;;;;5102712;28;20264;-75
2022/12/14 13:31:34;;;;;;;;;;;-0.40;99.90;;;;;;5097398;28;20314;-74
2022/12/14 13:34:02;;;;;;;;;;;-0.40;99.90;;;;;;5102060;28;19918;-72
2022/12/14 13:36:28;;;;;;;;;;;-0.30;99.90;;;;;;5095520;28;19938;-73
2022/12/14 13:39:18;;;;;;;;;;;-0.40;99.90;;;;;;5100013;28;19914;-73
2022/12/14 13:41:56;;;;;;;;;;;-0.40;99.90;;;;;;5096496;28;19908;-72
2022/12/14 13:44:22;;;;;;;;;;;-0.40;99.90;;;;;;5103230;28;19920;-72
2022/12/14 13:46:59;;;;;;;;;;;-0.50;99.90;;;;;;5098326;28;19920;-74
2022/12/14 13:49:25;;;;;;;;;;;-0.40;99.90;;;;;;5108435;28;20318;-73
2022/12/14 13:51:51;;;;;;;;;;;-0.50;99.90;;;;;;5106776;28;19912;-73
2022/12/14 13:54:22;;;;;;;;;;;-0.50;99.90;;;;;;5105029;28;20210;-75
2022/12/14 13:56:48;;;;;;;;;;;-0.50;99.90;;;;;;5095677;28;19924;-74
2022/12/14 13:59:34;;;;;;;;;;;-0.50;99.90;;;;;;5107041;28;20678;-73
2022/12/14 14:02:01;;;;;;;;;;;-0.50;99.90;;;;;;5098656;28;20015;-74
2022/12/14 14:04:28;;;;;;;;;;;-0.50;99.90;;;;;;5105339;28;20222;-72
2022/12/14 14:07:14;;;;;;;;;;;-0.50;99.90;;;;;;5107047;28;20349;-72
2022/12/14 14:09:42;;;;;;;;;;;-0.60;99.90;;;;;;5060021;28;19912;-73
2022/12/14 14:12:40;;;;;;;;;;;-0.50;99.90;;;;;;5101777;28;19943;-72
2022/12/14 14:15:24;;;;;;;;;;;-0.60;99.90;;;;;;5037341;28;19916;-74
2022/12/14 14:17:51;;;;;;;;;;;-0.60;99.90;;;;;;5046910;28;19919;-72
2022/12/14 14:20:26;;;;;;;;;;;-0.50;99.90;;;;;;5050162;28;19919;-75
2022/12/14 14:23:14;;;;;;;;;;;-0.60;99.90;;;;;;5051901;28;19939;-75
2022/12/14 14:25:45;;;;;;;;;;;-0.70;99.90;;;;;;5051014;28;19955;-73
2022/12/14 14:28:11;;;;;;;;;;;-0.70;99.90;;;;;;5046405;28;19921;-74
2022/12/14 14:30:40;;;;;;;;;;;-0.70;99.90;;;;;;5049812;28;19920;-73
2022/12/14 14:33:25;;;;;;;;;;;-0.70;99.90;;;;;;5033603;28;19919;-73
2022/12/14 14:35:50;;;;;;;;;;;-0.80;99.90;;;;;;5028318;28;19999;-74
2022/12/14 14:38:26;;;;;;;;;;;-0.90;99.90;;;;;;5043510;28;20423;-75
2022/12/14 14:40:54;;;;;;;;;;;-0.90;99.90;;;;;;5044255;28;19913;-73
2022/12/14 14:43:30;;;;;;;;;;;-1.00;99.90;;;;;;5048931;28;19917;-74